Deer Mountain, Utah
Current Conditions -  °F | °C
As of 2:53 PM on Thursday 23 Oct 2014 (Local Time) from KEVW Reporting Station
Clear Clear  
Wind Chill: 66°   Ceiling: Unl
Heat Index: 66°   Visibility: 10mi
Dew Point: 22°   Wind: 24mph
Humidity: 19%   Direction: 250°WSW
Pressure: 30.18"   Gusts: 31mph
Location:  40.8065°N, 110.723°W
Report Text: KEVW 232053Z AUTO 25021G27KT 10SM CLR 19/M06 A3018 RMK AO2 PK WND 25035/2018 SLP157 T01891056 56012 TSNO
Loading
Personal Weather Stations






























Interactive Weather Map
Tropical Storm Tracking
New forecast layout! Learn more

10-Day Weather Forecast

Advertisements
Track Severe Weather on mobile